Time,TemperatureF,DewpointF,PressureIn,WindDirection,WindDirectionDegrees,WindSpeedMPH,WindSpeedGustMPH,Humidity,HourlyPrecipIn,Conditions,Clouds,dailyrainin,SoftwareType,DateUTC
2013-01-21 00:04:00,30.5,3.4,30.15,WNW,283,0.0,0.0,31,0.00,CLR,,0.00,WeatherDisplay:10.37,2013-01-21 08:04:00,
2013-01-21 00:09:00,31.1,2.5,30.14,WNW,284,0.0,0.0,29,0.00,CLR,,0.00,WeatherDisplay:10.37,2013-01-21 08:09:00,
2013-01-21 00:14:00,30.2,0.9,30.15,WNW,283,4.0,4.0,28,0.00,CLR,,0.00,WeatherDisplay:10.37,2013-01-21 08:14:00,
2013-01-21 00:19:00,29.5,1.1,30.15,WNW,283,3.5,3.5,29,0.00,CLR,,0.00,WeatherDisplay:10.37,2013-01-21 08:19:00,
2013-01-21 00:24:00,28.9,0.6,30.15,WNW,283,2.3,2.3,29,0.00,CLR,,0.00,WeatherDisplay:10.37,2013-01-21 08:24:00,
2013-01-21 00:29:00,28.5,0.9,30.15,WNW,283,0.0,0.0,30,0.00,CLR,,0.00,WeatherDisplay:10.37,2013-01-21 08:29:00,
2013-01-21 00:34:00,28.8,1.2,30.15,WNW,283,0.0,0.0,30,0.00,CLR,,0.00,WeatherDisplay:10.37,2013-01-21 08:34:00,
2013-01-21 00:39:00,28.9,0.6,30.15,WNW,283,1.0,0.0,29,0.00,CLR,,0.00,WeatherDisplay:10.37,2013-01-21 08:39:00,
2013-01-21 00:44:00,29.1,1.5,30.15,WNW,283,0.0,0.0,30,0.00,CLR,,0.00,WeatherDisplay:10.37,2013-01-21 08:44:00,
2013-01-21 00:49:00,29.6,2.6,30.15,WNW,283,1.1,1.1,31,0.00,CLR,,0.00,WeatherDisplay:10.37,2013-01-21 08:49:00,
2013-01-21 00:54:00,30.2,3.1,30.15,WNW,283,0.0,0.1,31,0.00,CLR,,0.00,WeatherDisplay:10.37,2013-01-21 08:54:00,
2013-01-21 00:59:00,31.8,3.8,30.14,WNW,283,1.1,0.0,30,0.00,CLR,,0.00,WeatherDisplay:10.37,2013-01-21 08:59:00,
2013-01-21 01:04:00,32.6,3.8,30.13,WNW,283,0.0,0.0,29,0.00,CLR,,0.00,WeatherDisplay:10.37,2013-01-21 09:04:00,
2013-01-21 01:09:00,32.5,2.9,30.13,WNW,283,0.0,0.0,28,0.00,CLR,,0.00,WeatherDisplay:10.37,2013-01-21 09:09:00,
2013-01-21 01:14:00,30.9,1.6,30.14,WNW,283,0.0,0.0,28,0.00,CLR,,0.00,WeatherDisplay:10.37,2013-01-21 09:14:00,
2013-01-21 01:19:00,29.5,1.8,30.14,WNW,284,2.3,2.3,30,0.00,CLR,,0.00,WeatherDisplay:10.37,2013-01-21 09:19:00,
2013-01-21 01:24:00,29.2,1.6,30.15,SSW,193,2.3,2.3,30,0.00,CLR,,0.00,WeatherDisplay:10.37,2013-01-21 09:24:00,
2013-01-21 01:29:00,28.8,1.9,30.15,SSW,193,2.3,2.3,31,0.00,CLR,,0.00,WeatherDisplay:10.37,2013-01-21 09:29:00,
2013-01-21 01:34:00,29.4,2.4,30.14,SSW,193,2.3,2.3,31,0.00,CLR,,0.00,WeatherDisplay:10.37,2013-01-21 09:34:00,
2013-01-21 01:39:00,29.6,1.9,30.14,SSW,192,1.1,1.1,30,0.00,CLR,,0.00,WeatherDisplay:10.37,2013-01-21 09:39:00,
2013-01-21 01:44:00,29.4,1.7,30.14,SSW,193,2.3,2.3,30,0.00,CLR,,0.00,WeatherDisplay:10.37,2013-01-21 09:44:00,
2013-01-21 01:49:00,29.4,2.4,30.14,SSE,154,0.0,0.0,31,0.00,CLR,,0.00,WeatherDisplay:10.37,2013-01-21 09:49:00,
2013-01-21 01:54:00,29.5,1.8,30.14,SSE,154,1.1,1.1,30,0.00,CLR,,0.00,WeatherDisplay:10.37,2013-01-21 09:54:00,
2013-01-21 01:59:00,29.5,1.8,30.13,SSE,153,1.0,1.0,30,0.00,CLR,,0.00,WeatherDisplay:10.37,2013-01-21 09:59:00,
2013-01-21 02:04:00,29.8,2.1,30.13,East,82,4.0,4.0,30,0.00,CLR,,0.00,WeatherDisplay:10.37,2013-01-21 10:04:00,
2013-01-21 02:09:00,30.7,3.6,30.13,ENE,59,3.5,3.5,31,0.00,CLR,,0.00,WeatherDisplay:10.37,2013-01-21 10:09:00,
2013-01-21 02:14:00,31.9,3.2,30.13,ENE,58,0.0,0.0,29,0.00,CLR,,0.00,WeatherDisplay:10.37,2013-01-21 10:14:00,
2013-01-21 02:19:00,28.3,-0.7,30.14,South,178,9.2,9.2,28,0.00,CLR,,0.00,WeatherDisplay:10.37,2013-01-21 10:19:00,
2013-01-21 02:24:00,25.0,-1.4,30.15,South,178,4.6,4.6,31,0.00,CLR,,0.00,WeatherDisplay:10.37,2013-01-21 10:24:00,
2013-01-21 02:29:00,23.6,-2.0,30.16,South,178,3.5,3.5,32,0.00,CLR,,0.00,WeatherDisplay:10.37,2013-01-21 10:29:00,
2013-01-21 02:34:00,23.0,-1.9,30.16,South,178,0.0,0.0,33,0.00,CLR,,0.00,WeatherDisplay:10.37,2013-01-21 10:34:00,
2013-01-21 02:39:00,22.9,-0.7,30.16,South,178,0.0,0.0,35,0.00,CLR,,0.00,WeatherDisplay:10.37,2013-01-21 10:39:00,
2013-01-21 02:44:00,22.9,-0.1,30.16,South,178,0.0,0.0,36,0.00,CLR,,0.00,WeatherDisplay:10.37,2013-01-21 10:44:00,
2013-01-21 02:49:00,23.0,0.0,30.16,South,178,0.0,0.0,36,0.00,CLR,,0.00,WeatherDisplay:10.37,2013-01-21 10:49:00,
2013-01-21 02:54:00,23.2,0.1,30.16,South,178,0.0,0.0,36,0.00,CLR,,0.00,WeatherDisplay:10.37,2013-01-21 10:54:00,
2013-01-21 02:59:00,23.4,0.3,30.16,South,178,0.0,0.0,36,0.00,CLR,,0.00,WeatherDisplay:10.37,2013-01-21 10:59:00,
2013-01-21 03:04:00,23.6,-0.1,30.16,South,178,0.0,0.0,35,0.00,CLR,,0.00,WeatherDisplay:10.37,2013-01-21 11:04:00,
2013-01-21 03:09:00,23.7,0.0,30.16,South,178,0.0,0.0,35,0.00,CLR,,0.00,WeatherDisplay:10.37,2013-01-21 11:09:00,
2013-01-21 03:14:00,24.2,1.6,30.15,South,178,1.0,1.0,37,0.00,CLR,,0.00,WeatherDisplay:10.37,2013-01-21 11:14:00,
2013-01-21 03:19:00,24.9,1.7,30.15,South,178,0.0,0.0,36,0.00,CLR,,0.00,WeatherDisplay:10.37,2013-01-21 11:19:00,
2013-01-21 03:24:00,25.4,0.9,30.15,South,178,3.5,3.5,34,0.00,CLR,,0.00,WeatherDisplay:10.37,2013-01-21 11:24:00,
2013-01-21 03:29:00,25.7,1.2,30.14,South,178,3.5,3.5,34,0.00,CLR,,0.00,WeatherDisplay:10.37,2013-01-21 11:29:00,
2013-01-21 03:34:00,26.6,2.0,30.14,ENE,69,3.5,3.5,34,0.00,CLR,,0.00,WeatherDisplay:10.37,2013-01-21 11:34:00,
2013-01-21 03:39:00,27.5,2.1,30.14,ENE,69,0.0,0.0,33,0.00,CLR,,0.00,WeatherDisplay:10.37,2013-01-21 11:39:00,
2013-01-21 03:44:00,27.0,1.7,30.14,ENE,69,0.0,0.0,33,0.00,CLR,,0.00,WeatherDisplay:10.37,2013-01-21 11:44:00,
2013-01-21 03:49:00,26.7,1.4,30.14,ENE,69,0.0,0.0,33,0.00,CLR,,0.00,WeatherDisplay:10.37,2013-01-21 11:49:00,
2013-01-21 03:54:00,26.5,1.2,30.14,ENE,69,0.0,0.0,33,0.00,CLR,,0.00,WeatherDisplay:10.37,2013-01-21 11:54:00,
2013-01-21 03:59:00,25.5,0.3,30.14,ENE,71,2.0,2.0,33,0.00,CLR,,0.00,WeatherDisplay:10.37,2013-01-21 11:59:00,
2013-01-21 04:04:00,24.8,0.4,30.15,ENE,71,0.0,0.0,34,0.00,CLR,,0.00,WeatherDisplay:10.37,2013-01-21 12:04:00,
2013-01-21 04:09:00,23.8,0.1,30.15,ENE,71,0.0,0.0,35,0.00,CLR,,0.00,WeatherDisplay:10.37,2013-01-21 12:09:00,
2013-01-21 04:14:00,23.6,0.5,30.16,ENE,69,3.5,3.5,36,0.00,CLR,,0.00,WeatherDisplay:10.37,2013-01-21 12:14:00,
2013-01-21 04:19:00,24.4,1.2,30.15,ENE,69,0.0,0.0,36,0.00,CLR,,0.00,WeatherDisplay:10.37,2013-01-21 12:19:00,
2013-01-21 04:24:00,25.3,2.0,30.15,ENE,69,0.0,0.0,36,0.00,CLR,,0.00,WeatherDisplay:10.37,2013-01-21 12:24:00,
2013-01-21 04:29:00,25.8,1.9,30.15,ENE,69,0.0,0.0,35,0.00,CLR,,0.00,WeatherDisplay:10.37,2013-01-21 12:29:00,
2013-01-21 04:34:00,25.3,1.4,30.15,ENE,69,3.0,3.0,35,0.00,CLR,,0.00,WeatherDisplay:10.37,2013-01-21 12:34:00,
2013-01-21 04:39:00,24.2,0.4,30.16,ENE,70,3.5,3.5,35,0.00,CLR,,0.00,WeatherDisplay:10.37,2013-01-21 12:39:00,
2013-01-21 04:44:00,22.8,-0.2,30.16,WNW,294,5.0,5.0,36,0.00,CLR,,0.00,WeatherDisplay:10.37,2013-01-21 12:44:00,
2013-01-21 04:49:00,23.0,0.6,30.16,WNW,294,3.5,3.5,37,0.00,CLR,,0.00,WeatherDisplay:10.37,2013-01-21 12:49:00,
2013-01-21 04:54:00,23.8,0.7,30.16,WNW,294,3.5,3.5,36,0.00,CLR,,0.00,WeatherDisplay:10.37,2013-01-21 12:54:00,
2013-01-21 04:59:00,24.6,1.4,30.15,WNW,294,2.3,2.3,36,0.00,CLR,,0.00,WeatherDisplay:10.37,2013-01-21 12:59:00,
2013-01-21 05:04:00,25.0,1.8,30.16,WNW,295,3.5,3.5,36,0.00,CLR,,0.00,WeatherDisplay:10.37,2013-01-21 13:04:00,
2013-01-21 05:09:00,25.3,1.4,30.17,WNW,295,3.5,3.5,35,0.00,CLR,,0.00,WeatherDisplay:10.37,2013-01-21 13:09:00,
2013-01-21 05:14:00,25.7,1.8,30.17,WNW,295,0.0,0.0,35,0.00,CLR,,0.00,WeatherDisplay:10.37,2013-01-21 13:14:00,
2013-01-21 05:19:00,26.0,2.0,30.17,WNW,295,0.0,0.0,35,0.00,CLR,,0.00,WeatherDisplay:10.37,2013-01-21 13:19:00,
2013-01-21 05:25:00,26.1,2.1,30.17,WNW,295,0.0,0.0,35,0.00,CLR,,0.00,WeatherDisplay:10.37,2013-01-21 13:25:00,
2013-01-21 05:30:00,26.3,2.3,30.17,WNW,295,2.3,2.3,35,0.00,CLR,,0.00,WeatherDisplay:10.37,2013-01-21 13:30:00,
2013-01-21 05:35:00,26.2,2.2,30.16,WNW,295,1.0,1.0,35,0.00,CLR,,0.00,WeatherDisplay:10.37,2013-01-21 13:35:00,
2013-01-21 05:40:00,26.3,1.7,30.17,WNW,295,3.5,3.5,34,0.00,CLR,,0.00,WeatherDisplay:10.37,2013-01-21 13:40:00,
2013-01-21 05:45:00,26.8,2.1,30.17,SW,215,6.0,6.0,34,0.00,CLR,,0.00,WeatherDisplay:10.37,2013-01-21 13:45:00,
2013-01-21 05:50:00,24.1,-0.3,30.18,SSW,200,4.6,4.6,34,0.00,CLR,,0.00,WeatherDisplay:10.37,2013-01-21 13:50:00,
2013-01-21 05:55:00,23.2,0.1,30.18,SSW,200,0.0,0.0,36,0.00,CLR,,0.00,WeatherDisplay:10.37,2013-01-21 13:55:00,
2013-01-21 06:00:00,21.7,-1.8,30.19,SSW,200,3.5,3.5,35,0.00,CLR,,0.00,WeatherDisplay:10.37,2013-01-21 14:00:00,
2013-01-21 06:05:00,21.0,-0.1,30.19,SSW,200,2.3,2.3,39,0.00,CLR,,0.00,WeatherDisplay:10.37,2013-01-21 14:05:00,
2013-01-21 06:10:00,21.1,0.0,30.19,SSW,200,0.0,0.0,39,0.00,CLR,,0.00,WeatherDisplay:10.37,2013-01-21 14:10:00,
2013-01-21 06:15:00,21.4,0.2,30.19,SSW,200,0.0,0.0,39,0.00,CLR,,0.00,WeatherDisplay:10.37,2013-01-21 14:15:00,
2013-01-21 06:20:00,21.8,0.6,30.19,SSW,200,0.0,0.0,39,0.00,CLR,,0.00,WeatherDisplay:10.37,2013-01-21 14:20:00,
2013-01-21 06:25:00,22.4,1.1,30.20,SSW,200,0.0,0.0,39,0.00,CLR,,0.00,WeatherDisplay:10.37,2013-01-21 14:25:00,
2013-01-21 06:30:00,22.6,0.8,30.19,SSW,200,0.0,0.0,38,0.00,CLR,,0.00,WeatherDisplay:10.37,2013-01-21 14:30:00,
2013-01-21 06:35:00,22.6,0.8,30.19,SSW,200,0.0,0.0,38,0.00,CLR,,0.00,WeatherDisplay:10.37,2013-01-21 14:35:00,
2013-01-21 06:40:00,22.8,1.5,30.19,SSW,200,0.0,0.0,39,0.00,CLR,,0.00,WeatherDisplay:10.37,2013-01-21 14:40:00,
2013-01-21 06:45:00,23.1,1.8,30.19,SSW,200,3.0,3.0,39,0.00,CLR,,0.00,WeatherDisplay:10.37,2013-01-21 14:45:00,
2013-01-21 06:50:00,23.8,1.8,30.19,SSW,200,4.0,4.0,38,0.00,CLR,,0.00,WeatherDisplay:10.37,2013-01-21 14:50:00,
2013-01-21 06:55:00,25.1,2.4,30.18,SSW,200,2.3,2.3,37,0.00,CLR,,0.00,WeatherDisplay:10.37,2013-01-21 14:55:00,
2013-01-21 07:00:00,25.2,1.9,30.19,East,91,2.3,2.3,36,0.00,CLR,,0.00,WeatherDisplay:10.37,2013-01-21 15:00:00,
2013-01-21 07:05:00,25.0,1.8,30.19,East,92,0.0,0.0,36,0.00,CLR,,0.00,WeatherDisplay:10.37,2013-01-21 15:05:00,
2013-01-21 07:10:00,25.4,2.1,30.20,East,91,0.0,0.0,36,0.00,CLR,,0.00,WeatherDisplay:10.37,2013-01-21 15:10:00,
2013-01-21 07:15:00,24.8,1.6,30.20,East,94,4.0,4.0,36,0.00,CLR,,0.00,WeatherDisplay:10.37,2013-01-21 15:15:00,
2013-01-21 07:20:00,23.8,0.7,30.20,East,94,3.5,3.5,36,0.00,CLR,,0.00,WeatherDisplay:10.37,2013-01-21 15:20:00,
2013-01-21 07:25:00,22.9,0.5,30.21,SSE,155,6.9,6.9,37,0.00,CLR,,0.00,WeatherDisplay:10.37,2013-01-21 15:25:00,
2013-01-21 07:30:00,22.9,1.0,30.21,SSE,155,0.0,0.0,38,0.00,CLR,,0.00,WeatherDisplay:10.37,2013-01-21 15:30:00,
2013-01-21 07:35:00,22.3,-0.7,30.21,SSE,155,0.0,0.0,36,0.00,CLR,,0.00,WeatherDisplay:10.37,2013-01-21 15:35:00,
2013-01-21 07:40:00,22.2,1.0,30.22,SSE,155,2.3,2.3,39,0.00,CLR,,0.00,WeatherDisplay:10.37,2013-01-21 15:40:00,
2013-01-21 07:45:00,23.3,1.4,30.22,SSE,155,3.5,3.5,38,0.00,CLR,,0.00,WeatherDisplay:10.37,2013-01-21 15:45:00,
2013-01-21 07:50:00,24.3,1.7,30.22,SSE,155,2.3,2.3,37,0.00,CLR,,0.00,WeatherDisplay:10.37,2013-01-21 15:50:00,
2013-01-21 07:55:00,24.4,0.6,30.22,SSE,155,3.5,3.5,35,0.00,CLR,,0.00,WeatherDisplay:10.37,2013-01-21 15:55:00,
2013-01-21 08:00:00,24.4,0.6,30.22,SSE,155,3.5,3.5,35,0.00,CLR,,0.00,WeatherDisplay:10.37,2013-01-21 16:00:00,
2013-01-21 08:05:00,25.2,1.9,30.25,SSE,155,2.3,2.3,36,0.00,CLR,,0.00,WeatherDisplay:10.37,2013-01-21 16:05:00,
2013-01-21 08:10:00,26.3,2.9,30.25,SSE,155,0.0,0.0,36,0.00,CLR,,0.00,WeatherDisplay:10.37,2013-01-21 16:10:00,
2013-01-21 08:15:00,27.6,3.5,30.25,SSE,155,0.0,0.0,35,0.00,CLR,,0.00,WeatherDisplay:10.37,2013-01-21 16:15:00,
2013-01-21 08:20:00,28.5,3.6,30.24,SSE,155,0.0,0.0,34,0.00,CLR,,0.00,WeatherDisplay:10.37,2013-01-21 16:20:00,
2013-01-21 08:25:00,29.6,4.6,30.24,SSE,155,0.0,0.0,34,0.00,CLR,,0.00,WeatherDisplay:10.37,2013-01-21 16:25:00,
2013-01-21 08:30:00,31.4,5.6,30.24,SSE,155,2.3,0.0,33,0.00,CLR,,0.00,WeatherDisplay:10.37,2013-01-21 16:30:00,
2013-01-21 08:35:00,32.5,5.9,30.23,SSE,155,0.0,0.0,32,0.00,CLR,,0.00,WeatherDisplay:10.37,2013-01-21 16:35:00,
2013-01-21 08:40:00,33.0,5.6,30.24,SSE,155,0.0,0.0,31,0.00,CLR,,0.00,WeatherDisplay:10.37,2013-01-21 16:40:00,
2013-01-21 08:45:00,33.7,6.2,30.24,SSE,155,0.0,0.0,31,0.00,CLR,,0.00,WeatherDisplay:10.37,2013-01-21 16:45:00,
2013-01-21 08:50:00,33.8,6.3,30.24,SSE,155,0.0,0.0,31,0.00,CLR,,0.00,WeatherDisplay:10.37,2013-01-21 16:50:00,
2013-01-21 08:55:00,33.5,6.0,30.24,SSE,155,0.0,0.0,31,0.00,CLR,,0.00,WeatherDisplay:10.37,2013-01-21 16:55:00,
2013-01-21 09:00:00,33.5,6.0,30.24,SSE,155,0.0,0.0,31,0.00,CLR,,0.00,WeatherDisplay:10.37,2013-01-21 17:00:00,
2013-01-21 09:05:00,33.7,5.5,30.24,SSE,155,0.0,0.0,30,0.00,CLR,,0.00,WeatherDisplay:10.37,2013-01-21 17:05:00,
2013-01-21 09:10:00,34.4,6.1,30.24,SSE,155,0.0,0.0,30,0.00,CLR,,0.00,WeatherDisplay:10.37,2013-01-21 17:10:00,
2013-01-21 09:15:00,36.0,7.5,30.24,SSE,155,0.0,0.0,30,0.00,CLR,,0.00,WeatherDisplay:10.37,2013-01-21 17:15:00,
2013-01-21 09:20:00,36.8,7.5,30.24,SSE,155,0.0,0.0,29,0.00,CLR,,0.00,WeatherDisplay:10.37,2013-01-21 17:20:00,
2013-01-21 09:25:00,37.1,7.7,30.24,SSE,155,0.0,0.0,29,0.00,CLR,,0.00,WeatherDisplay:10.37,2013-01-21 17:25:00,
2013-01-21 09:30:00,37.8,8.3,30.24,SSE,155,0.0,0.0,29,0.00,CLR,,0.00,WeatherDisplay:10.37,2013-01-21 17:30:00,
2013-01-21 09:35:00,38.6,8.2,30.23,SSE,155,0.0,0.0,28,0.00,CLR,,0.00,WeatherDisplay:10.37,2013-01-21 17:35:00,
2013-01-21 09:40:00,39.3,8.9,30.23,SSE,155,0.0,0.0,28,0.00,CLR,,0.00,WeatherDisplay:10.37,2013-01-21 17:40:00,
2013-01-21 09:45:00,39.8,9.3,30.23,SSE,155,0.0,0.0,28,0.00,CLR,,0.00,WeatherDisplay:10.37,2013-01-21 17:45:00,
2013-01-21 09:50:00,40.6,9.2,30.23,SSE,155,0.0,0.0,27,0.00,CLR,,0.00,WeatherDisplay:10.37,2013-01-21 17:50:00,
2013-01-21 09:55:00,41.5,9.1,30.23,SSE,155,0.0,0.0,26,0.00,CLR,,0.00,WeatherDisplay:10.37,2013-01-21 17:55:00,
2013-01-21 10:00:00,42.3,9.8,30.25,SSE,155,0.0,0.0,26,0.00,CLR,,0.00,WeatherDisplay:10.37,2013-01-21 18:00:00,
2013-01-21 10:05:00,42.5,10.0,30.25,SSE,155,0.0,0.0,26,0.00,CLR,,0.00,WeatherDisplay:10.37,2013-01-21 18:05:00,
2013-01-21 10:10:00,43.2,9.7,30.25,SSE,155,0.0,0.0,25,0.00,CLR,,0.00,WeatherDisplay:10.37,2013-01-21 18:10:00,
2013-01-21 10:15:00,44.0,10.4,30.24,SSE,155,0.0,0.0,25,0.00,CLR,,0.00,WeatherDisplay:10.37,2013-01-21 18:15:00,
2013-01-21 10:20:00,45.2,11.4,30.24,SSE,155,0.0,0.0,25,0.00,CLR,,0.00,WeatherDisplay:10.37,2013-01-21 18:20:00,
2013-01-21 10:25:00,45.9,11.1,30.23,SSE,155,0.0,0.0,24,0.00,CLR,,0.00,WeatherDisplay:10.37,2013-01-21 18:25:00,
2013-01-21 10:30:00,46.2,11.3,30.23,SSE,155,0.0,0.0,24,0.00,CLR,,0.00,WeatherDisplay:10.37,2013-01-21 18:30:00,
2013-01-21 10:35:00,46.9,11.9,30.23,SSE,155,0.0,0.0,24,0.00,CLR,,0.00,WeatherDisplay:10.37,2013-01-21 18:35:00,
2013-01-21 10:40:00,47.9,12.8,30.22,SSE,155,0.0,0.0,24,0.00,CLR,,0.00,WeatherDisplay:10.37,2013-01-21 18:40:00,
2013-01-21 10:45:00,48.9,12.7,30.22,SSE,155,0.0,0.0,23,0.00,CLR,,0.00,WeatherDisplay:10.37,2013-01-21 18:45:00,
2013-01-21 10:50:00,50.3,13.9,30.21,SSE,155,0.0,0.0,23,0.00,CLR,,0.00,WeatherDisplay:10.37,2013-01-21 18:50:00,
2013-01-21 10:55:00,52.1,14.4,30.20,ESE,120,0.0,0.0,22,0.00,CLR,,0.00,WeatherDisplay:10.37,2013-01-21 18:55:00,
2013-01-21 11:00:00,53.7,14.6,30.21,ESE,103,0.0,0.0,21,0.00,CLR,,0.00,WeatherDisplay:10.37,2013-01-21 19:00:00,
2013-01-21 11:05:00,55.4,14.9,30.20,ESE,103,0.0,0.0,20,0.00,CLR,,0.00,WeatherDisplay:10.37,2013-01-21 19:05:00,
2013-01-21 11:10:00,57.1,15.2,30.20,East,79,0.0,0.0,19,0.00,CLR,,0.00,WeatherDisplay:10.37,2013-01-21 19:10:00,
2013-01-21 11:15:00,58.6,15.2,30.19,East,82,0.0,0.7,18,0.00,CLR,,0.00,WeatherDisplay:10.37,2013-01-21 19:15:00,
2013-01-21 11:20:00,59.0,15.5,30.19,NE,53,3.5,3.5,18,0.00,CLR,,0.00,WeatherDisplay:10.37,2013-01-21 19:20:00,
2013-01-21 11:25:00,59.4,14.5,30.18,NE,50,9.2,9.2,17,0.00,CLR,,0.00,WeatherDisplay:10.37,2013-01-21 19:25:00,
2013-01-21 11:30:00,60.0,15.0,30.17,NE,36,2.3,2.3,17,0.00,CLR,,0.00,WeatherDisplay:10.37,2013-01-21 19:30:00,
2013-01-21 11:35:00,60.2,13.8,30.17,NNE,28,5.8,5.8,16,0.00,CLR,,0.00,WeatherDisplay:10.37,2013-01-21 19:35:00,
2013-01-21 11:40:00,60.1,13.7,30.17,NE,48,10.4,10.4,16,0.00,CLR,,0.00,WeatherDisplay:10.37,2013-01-21 19:40:00,
2013-01-21 11:45:00,60.2,13.8,30.16,NE,34,3.5,0.0,16,0.00,CLR,,0.00,WeatherDisplay:10.37,2013-01-21 19:45:00,
2013-01-21 11:50:00,60.8,14.3,30.16,NE,41,3.5,3.5,16,0.00,CLR,,0.00,WeatherDisplay:10.37,2013-01-21 19:50:00,
2013-01-21 11:55:00,61.1,14.5,30.16,NE,49,6.9,6.9,16,0.00,CLR,,0.00,WeatherDisplay:10.37,2013-01-21 19:55:00,
2013-01-21 12:00:00,61.3,14.7,30.15,East,80,3.5,3.5,16,0.00,CLR,,0.00,WeatherDisplay:10.37,2013-01-21 20:00:00,
2013-01-21 12:05:00,61.6,14.9,30.14,NE,54,4.6,4.6,16,0.00,CLR,,0.00,WeatherDisplay:10.37,2013-01-21 20:05:00,
2013-01-21 12:10:00,61.8,13.6,30.14,NNE,26,3.5,3.5,15,0.00,CLR,,0.00,WeatherDisplay:10.37,2013-01-21 20:10:00,
2013-01-21 12:16:00,61.6,13.4,30.14,North,360,4.6,4.6,15,0.00,CLR,,0.00,WeatherDisplay:10.37,2013-01-21 20:16:00,
2013-01-21 12:21:00,62.2,13.9,30.13,ENE,69,3.5,3.5,15,0.00,CLR,,0.00,WeatherDisplay:10.37,2013-01-21 20:21:00,
2013-01-21 12:26:00,62.7,14.3,30.13,NE,51,0.0,0.0,15,0.00,CLR,,0.00,WeatherDisplay:10.37,2013-01-21 20:26:00,
2013-01-21 12:31:00,63.4,14.9,30.13,ESE,103,11.5,11.5,15,0.00,CLR,,0.00,WeatherDisplay:10.37,2013-01-21 20:31:00,
2013-01-21 12:36:00,63.1,14.6,30.12,East,84,4.6,4.6,15,0.00,CLR,,0.00,WeatherDisplay:10.37,2013-01-21 20:36:00,
2013-01-21 12:41:00,63.7,15.1,30.12,NE,42,4.0,4.0,15,0.00,CLR,,0.00,WeatherDisplay:10.37,2013-01-21 20:41:00,
2013-01-21 12:46:00,63.5,13.4,30.11,SE,129,12.7,12.7,14,0.00,CLR,,0.00,WeatherDisplay:10.37,2013-01-21 20:46:00,
2013-01-21 12:51:00,63.6,15.0,30.11,ESE,122,10.0,10.0,15,0.00,CLR,,0.00,WeatherDisplay:10.37,2013-01-21 20:51:00,
2013-01-21 12:56:00,63.6,15.0,30.11,East,91,3.0,3.0,15,0.00,CLR,,0.00,WeatherDisplay:10.37,2013-01-21 20:56:00,
2013-01-21 13:01:00,63.7,15.1,30.11,SE,129,4.6,4.6,15,0.00,CLR,,0.00,WeatherDisplay:10.37,2013-01-21 21:01:00,
2013-01-21 13:06:00,64.0,15.4,30.11,ESE,123,11.5,11.5,15,0.00,CLR,,0.00,WeatherDisplay:10.37,2013-01-21 21:06:00,
2013-01-21 13:11:00,63.5,16.4,30.11,ESE,123,10.4,10.4,16,0.00,CLR,,0.00,WeatherDisplay:10.37,2013-01-21 21:11:00,
2013-01-21 13:16:00,63.7,15.1,30.11,SE,130,10.4,10.4,15,0.00,CLR,,0.00,WeatherDisplay:10.37,2013-01-21 21:16:00,
2013-01-21 13:21:00,63.6,16.5,30.11,ESE,109,5.8,5.8,16,0.00,CLR,,0.00,WeatherDisplay:10.37,2013-01-21 21:21:00,
2013-01-21 13:26:00,63.6,15.0,30.11,East,82,4.6,4.6,15,0.00,CLR,,0.00,WeatherDisplay:10.37,2013-01-21 21:26:00,
2013-01-21 13:31:00,64.0,15.4,30.10,East,87,9.0,9.0,15,0.00,CLR,,0.00,WeatherDisplay:10.37,2013-01-21 21:31:00,
2013-01-21 13:36:00,64.3,14.0,30.10,East,101,11.5,11.5,14,0.00,CLR,,0.00,WeatherDisplay:10.37,2013-01-21 21:36:00,
2013-01-21 13:41:00,64.8,14.4,30.10,East,100,11.5,11.5,14,0.00,CLR,,0.00,WeatherDisplay:10.37,2013-01-21 21:41:00,
2013-01-21 13:46:00,65.0,14.6,30.10,East,80,13.8,13.8,14,0.00,CLR,,0.00,WeatherDisplay:10.37,2013-01-21 21:46:00,
2013-01-21 13:51:00,64.7,14.3,30.10,East,88,11.5,11.5,14,0.00,CLR,,0.00,WeatherDisplay:10.37,2013-01-21 21:51:00,
2013-01-21 13:56:00,64.5,14.2,30.10,ESE,121,9.2,9.2,14,0.00,CLR,,0.00,WeatherDisplay:10.37,2013-01-21 21:56:00,
2013-01-21 14:01:00,64.9,14.5,30.11,ESE,105,12.7,12.7,14,0.00,CLR,,0.00,WeatherDisplay:10.37,2013-01-21 22:01:00,
2013-01-21 14:06:00,65.0,14.6,30.11,SE,132,10.4,10.4,14,0.00,CLR,,0.00,WeatherDisplay:10.37,2013-01-21 22:06:00,
2013-01-21 14:11:00,65.0,14.6,30.11,East,98,9.2,9.2,14,0.00,CLR,,0.00,WeatherDisplay:10.37,2013-01-21 22:11:00,
2013-01-21 14:16:00,65.2,14.7,30.11,East,101,11.5,11.5,14,0.00,CLR,,0.00,WeatherDisplay:10.37,2013-01-21 22:16:00,
2013-01-21 14:21:00,65.2,14.7,30.11,East,87,6.9,6.9,14,0.00,CLR,,0.00,WeatherDisplay:10.37,2013-01-21 22:21:00,
2013-01-21 14:26:00,65.2,14.7,30.11,East,80,6.0,6.0,14,0.00,CLR,,0.00,WeatherDisplay:10.37,2013-01-21 22:26:00,
2013-01-21 14:31:00,65.3,14.8,30.10,East,100,5.8,5.8,14,0.00,CLR,,0.00,WeatherDisplay:10.37,2013-01-21 22:31:00,
2013-01-21 14:36:00,65.8,15.2,30.10,ENE,67,3.5,3.5,14,0.00,CLR,,0.00,WeatherDisplay:10.37,2013-01-21 22:36:00,
2013-01-21 14:41:00,65.9,15.3,30.10,East,83,9.2,9.2,14,0.00,CLR,,0.00,WeatherDisplay:10.37,2013-01-21 22:41:00,
2013-01-21 14:46:00,65.9,15.3,30.10,East,92,9.2,9.2,14,0.00,CLR,,0.00,WeatherDisplay:10.37,2013-01-21 22:46:00,
2013-01-21 14:51:00,65.7,15.1,30.10,ESE,110,10.4,10.4,14,0.00,CLR,,0.00,WeatherDisplay:10.37,2013-01-21 22:51:00,
2013-01-21 14:56:00,65.8,15.2,30.10,East,101,11.5,11.5,14,0.00,CLR,,0.00,WeatherDisplay:10.37,2013-01-21 22:56:00,
2013-01-21 15:01:00,65.8,15.2,30.10,East,86,10.4,10.4,14,0.00,CLR,,0.00,WeatherDisplay:10.37,2013-01-21 23:01:00,
2013-01-21 15:06:00,66.0,15.4,30.09,East,97,11.0,11.0,14,0.00,CLR,,0.00,WeatherDisplay:10.37,2013-01-21 23:06:00,
2013-01-21 15:11:00,65.9,15.3,30.09,ESE,102,4.6,4.6,14,0.00,CLR,,0.00,WeatherDisplay:10.37,2013-01-21 23:11:00,
2013-01-21 15:16:00,66.1,15.5,30.09,East,82,5.8,5.8,14,0.00,CLR,,0.00,WeatherDisplay:10.37,2013-01-21 23:16:00,
2013-01-21 15:21:00,66.4,14.0,30.09,ENE,72,3.0,3.0,13,0.00,CLR,,0.00,WeatherDisplay:10.37,2013-01-21 23:21:00,
2013-01-21 15:26:00,66.4,15.7,30.09,ESE,118,10.4,10.4,14,0.00,CLR,,0.00,WeatherDisplay:10.37,2013-01-21 23:26:00,
2013-01-21 15:31:00,66.1,15.5,30.09,ESE,118,10.4,10.4,14,0.00,CLR,,0.00,WeatherDisplay:10.37,2013-01-21 23:31:00,
2013-01-21 15:36:00,66.1,15.5,30.09,East,95,5.8,5.8,14,0.00,CLR,,0.00,WeatherDisplay:10.37,2013-01-21 23:36:00,
2013-01-21 15:41:00,66.1,15.5,30.09,ESE,121,3.5,3.5,14,0.00,CLR,,0.00,WeatherDisplay:10.37,2013-01-21 23:41:00,
2013-01-21 15:46:00,66.2,13.8,30.09,East,79,3.5,3.5,13,0.00,CLR,,0.00,WeatherDisplay:10.37,2013-01-21 23:46:00,
2013-01-21 15:51:00,66.3,13.9,30.08,ENE,69,2.3,2.3,13,0.00,CLR,,0.00,WeatherDisplay:10.37,2013-01-21 23:51:00,
2013-01-21 15:56:00,66.3,13.9,30.08,ENE,70,4.6,4.6,13,0.00,CLR,,0.00,WeatherDisplay:10.37,2013-01-21 23:56:00,
2013-01-21 16:01:00,66.2,13.8,30.08,East,84,4.6,4.6,13,0.00,CLR,,0.00,WeatherDisplay:10.37,2013-01-22 00:01:00,
2013-01-21 16:06:00,66.3,15.6,30.08,NE,49,3.5,3.5,14,0.00,CLR,,0.00,WeatherDisplay:10.37,2013-01-22 00:06:00,
2013-01-21 16:11:00,66.1,13.8,30.08,ENE,67,4.6,4.6,13,0.00,CLR,,0.00,WeatherDisplay:10.37,2013-01-22 00:11:00,
2013-01-21 16:16:00,65.8,13.5,30.08,ENE,71,3.5,3.5,13,0.00,CLR,,0.00,WeatherDisplay:10.37,2013-01-22 00:16:00,
2013-01-21 16:21:00,65.8,15.2,30.08,ENE,71,3.5,3.5,14,0.00,CLR,,0.00,WeatherDisplay:10.37,2013-01-22 00:21:00,
2013-01-21 16:26:00,65.8,15.2,30.08,ENE,71,1.1,1.1,14,0.00,CLR,,0.00,WeatherDisplay:10.37,2013-01-22 00:26:00,
2013-01-21 16:31:00,65.7,15.1,30.08,ENE,71,3.5,3.5,14,0.00,CLR,,0.00,WeatherDisplay:10.37,2013-01-22 00:31:00,
2013-01-21 16:36:00,65.4,14.9,30.07,ENE,71,0.0,0.0,14,0.00,CLR,,0.00,WeatherDisplay:10.37,2013-01-22 00:36:00,
2013-01-21 16:41:00,65.2,13.0,30.07,ENE,71,0.0,0.0,13,0.00,CLR,,0.00,WeatherDisplay:10.37,2013-01-22 00:41:00,
2013-01-21 16:46:00,64.9,14.5,30.08,ENE,71,0.0,0.0,14,0.00,CLR,,0.00,WeatherDisplay:10.37,2013-01-22 00:46:00,
2013-01-21 16:51:00,64.6,14.3,30.07,ENE,71,0.0,0.0,14,0.00,CLR,,0.00,WeatherDisplay:10.37,2013-01-22 00:51:00,
2013-01-21 16:56:00,64.2,13.9,30.08,ENE,71,0.0,0.0,14,0.00,CLR,,0.00,WeatherDisplay:10.37,2013-01-22 00:56:00,
2013-01-21 17:01:00,63.9,13.7,30.08,ENE,71,0.0,0.0,14,0.00,CLR,,0.00,WeatherDisplay:10.37,2013-01-22 01:01:00,
2013-01-21 17:06:00,63.5,13.4,30.09,ENE,71,0.0,0.0,14,0.00,CLR,,0.00,WeatherDisplay:10.37,2013-01-22 01:06:00,
2013-01-21 17:11:00,62.6,12.7,30.09,ENE,67,0.0,0.0,14,0.00,CLR,,0.00,WeatherDisplay:10.37,2013-01-22 01:11:00,
2013-01-21 17:16:00,62.0,12.2,30.09,ENE,67,0.0,0.0,14,0.00,CLR,,0.00,WeatherDisplay:10.37,2013-01-22 01:16:00,
2013-01-21 17:21:00,61.7,11.9,30.09,ENE,67,0.0,0.0,14,0.00,CLR,,0.00,WeatherDisplay:10.37,2013-01-22 01:21:00,
2013-01-21 17:26:00,61.6,13.4,30.09,ENE,67,0.0,0.0,15,0.00,CLR,,0.00,WeatherDisplay:10.37,2013-01-22 01:26:00,
2013-01-21 17:31:00,61.4,11.7,30.10,ENE,67,0.0,0.0,14,0.00,CLR,,0.00,WeatherDisplay:10.37,2013-01-22 01:31:00,
2013-01-21 17:36:00,61.1,13.0,30.10,ENE,67,0.0,0.0,15,0.00,CLR,,0.00,WeatherDisplay:10.37,2013-01-22 01:36:00,
2013-01-21 17:41:00,60.6,12.6,30.10,ENE,67,0.0,0.0,15,0.00,CLR,,0.00,WeatherDisplay:10.37,2013-01-22 01:41:00,
2013-01-21 17:46:00,59.7,11.9,30.10,ENE,67,0.0,0.0,15,0.00,CLR,,0.00,WeatherDisplay:10.37,2013-01-22 01:46:00,
2013-01-21 17:51:00,59.0,11.3,30.11,ENE,65,0.0,0.0,15,0.00,CLR,,0.00,WeatherDisplay:10.37,2013-01-22 01:51:00,
2013-01-21 17:56:00,58.5,10.9,30.11,ENE,60,0.0,0.0,15,0.00,CLR,,0.00,WeatherDisplay:10.37,2013-01-22 01:56:00,
2013-01-21 18:01:00,58.2,12.1,30.11,NE,53,0.0,0.0,16,0.00,CLR,,0.00,WeatherDisplay:10.37,2013-01-22 02:01:00,
2013-01-21 18:06:00,58.0,12.0,30.11,NE,50,0.0,0.0,16,0.00,CLR,,0.00,WeatherDisplay:10.37,2013-01-22 02:06:00,
2013-01-21 18:11:00,57.6,11.7,30.11,NE,45,0.0,0.0,16,0.00,CLR,,0.00,WeatherDisplay:10.37,2013-01-22 02:11:00,
2013-01-21 18:16:00,57.3,11.4,30.11,NE,44,0.0,0.0,16,0.00,CLR,,0.00,WeatherDisplay:10.37,2013-01-22 02:16:00,
2013-01-21 18:21:00,57.1,11.3,30.11,NE,42,0.0,0.0,16,0.00,CLR,,0.00,WeatherDisplay:10.37,2013-01-22 02:21:00,
2013-01-21 18:26:00,56.7,12.3,30.11,NE,41,0.0,0.0,17,0.00,CLR,,0.00,WeatherDisplay:10.37,2013-01-22 02:26:00,
2013-01-21 18:31:00,55.9,11.6,30.12,NE,41,0.0,0.0,17,0.00,CLR,,0.00,WeatherDisplay:10.37,2013-01-22 02:31:00,
2013-01-21 18:36:00,55.1,11.0,30.11,NE,41,0.0,0.0,17,0.00,CLR,,0.00,WeatherDisplay:10.37,2013-01-22 02:36:00,
2013-01-21 18:41:00,55.8,11.6,30.11,NNE,26,5.8,5.8,17,0.00,CLR,,0.00,WeatherDisplay:10.37,2013-01-22 02:41:00,
2013-01-21 18:46:00,57.2,11.3,30.11,NNE,21,6.9,6.9,16,0.00,CLR,,0.00,WeatherDisplay:10.37,2013-01-22 02:46:00,
2013-01-21 18:51:00,57.3,11.4,30.11,NNE,22,4.6,4.6,16,0.00,CLR,,0.00,WeatherDisplay:10.37,2013-01-22 02:51:00,
2013-01-21 18:56:00,57.2,11.3,30.11,NNE,19,4.6,4.6,16,0.00,CLR,,0.00,WeatherDisplay:10.37,2013-01-22 02:56:00,
2013-01-21 19:01:00,56.9,11.1,30.11,NNE,19,0.0,0.0,16,0.00,CLR,,0.00,WeatherDisplay:10.37,2013-01-22 03:01:00,
2013-01-21 19:06:00,54.7,9.3,30.12,NNE,19,0.0,0.0,16,0.00,CLR,,0.00,WeatherDisplay:10.37,2013-01-22 03:06:00,
2013-01-21 19:11:00,52.2,8.6,30.13,NNE,19,0.0,0.0,17,0.00,CLR,,0.00,WeatherDisplay:10.37,2013-01-22 03:11:00,
2013-01-21 19:16:00,49.4,8.8,30.14,NNE,13,3.5,3.5,19,0.00,CLR,,0.00,WeatherDisplay:10.37,2013-01-22 03:16:00,
2013-01-21 19:21:00,47.4,7.1,30.15,WSW,254,3.5,3.5,19,0.00,CLR,,0.00,WeatherDisplay:10.37,2013-01-22 03:21:00,
2013-01-21 19:26:00,46.3,6.2,30.15,SW,233,2.3,2.3,19,0.00,CLR,,0.00,WeatherDisplay:10.37,2013-01-22 03:26:00,
2013-01-21 19:31:00,45.7,6.8,30.15,SW,233,0.0,0.0,20,0.00,CLR,,0.00,WeatherDisplay:10.37,2013-01-22 03:31:00,
2013-01-21 19:36:00,45.4,7.7,30.15,SW,233,0.0,0.0,21,0.00,CLR,,0.00,WeatherDisplay:10.37,2013-01-22 03:36:00,
2013-01-21 19:41:00,45.8,8.0,30.15,SW,233,0.0,0.0,21,0.00,CLR,,0.00,WeatherDisplay:10.37,2013-01-22 03:41:00,
2013-01-21 19:46:00,46.0,8.2,30.16,South,169,4.6,4.6,21,0.00,CLR,,0.00,WeatherDisplay:10.37,2013-01-22 03:46:00,
2013-01-21 19:51:00,45.5,7.8,30.16,South,170,3.5,3.5,21,0.00,CLR,,0.00,WeatherDisplay:10.37,2013-01-22 03:51:00,
2013-01-21 19:56:00,45.4,7.7,30.16,ENE,77,3.5,3.5,21,0.00,CLR,,0.00,WeatherDisplay:10.37,2013-01-22 03:56:00,
2013-01-21 20:01:00,45.6,7.8,30.16,ENE,68,1.1,0.0,21,0.00,CLR,,0.00,WeatherDisplay:10.37,2013-01-22 04:01:00,
2013-01-21 20:06:00,44.7,7.1,30.15,ENE,69,4.0,4.0,21,0.00,CLR,,0.00,WeatherDisplay:10.37,2013-01-22 04:06:00,
2013-01-21 20:11:00,44.7,7.1,30.15,ENE,64,3.5,3.5,21,0.00,CLR,,0.00,WeatherDisplay:10.37,2013-01-22 04:11:00,
2013-01-21 20:16:00,44.6,5.9,30.15,NNW,346,5.0,5.0,20,0.00,CLR,,0.00,WeatherDisplay:10.37,2013-01-22 04:16:00,
2013-01-21 20:21:00,43.1,7.7,30.16,NNW,329,2.3,2.3,23,0.00,CLR,,0.00,WeatherDisplay:10.37,2013-01-22 04:21:00,
2013-01-21 20:26:00,43.0,6.7,30.16,NNW,329,3.5,3.5,22,0.00,CLR,,0.00,WeatherDisplay:10.37,2013-01-22 04:26:00,
2013-01-21 20:31:00,43.2,6.8,30.16,NNW,329,0.0,0.0,22,0.00,CLR,,0.00,WeatherDisplay:10.37,2013-01-22 04:31:00,
2013-01-21 20:36:00,43.4,8.0,30.16,NNW,329,0.0,0.0,23,0.00,CLR,,0.00,WeatherDisplay:10.37,2013-01-22 04:36:00,
2013-01-21 20:41:00,43.5,8.1,30.16,WSW,257,3.5,3.5,23,0.00,CLR,,0.00,WeatherDisplay:10.37,2013-01-22 04:41:00,
2013-01-21 20:46:00,42.4,6.2,30.16,WSW,257,0.0,0.0,22,0.00,CLR,,0.00,WeatherDisplay:10.37,2013-01-22 04:46:00,
2013-01-21 20:51:00,41.6,6.5,30.17,WSW,257,0.0,0.0,23,0.00,CLR,,0.00,WeatherDisplay:10.37,2013-01-22 04:51:00,
2013-01-21 20:56:00,41.4,6.3,30.17,WSW,257,0.0,0.0,23,0.00,CLR,,0.00,WeatherDisplay:10.37,2013-01-22 04:56:00,
2013-01-21 21:00:00,41.5,6.4,30.17,WSW,257,0.0,0.0,23,0.00,CLR,,0.00,WeatherDisplay:10.37,2013-01-22 05:00:00,
2013-01-21 21:01:00,41.5,6.4,30.17,WSW,257,0.0,0.0,23,0.00,CLR,,0.00,WeatherDisplay:10.37,2013-01-22 05:01:00,
2013-01-21 21:03:00,41.5,6.4,30.14,WSW,257,0.0,0.0,23,0.00,CLR,,0.00,WeatherDisplay:10.37,2013-01-22 05:03:00,
2013-01-21 21:04:00,41.7,6.6,30.14,WSW,257,0.0,0.0,23,0.00,CLR,,0.00,WeatherDisplay:10.37,2013-01-22 05:04:00,
2013-01-21 21:09:00,42.3,7.1,30.15,WSW,257,0.0,0.0,23,0.00,CLR,,0.00,WeatherDisplay:10.37,2013-01-22 05:09:00,
2013-01-21 21:14:00,41.9,6.7,30.15,WSW,237,4.0,4.0,23,0.00,CLR,,0.00,WeatherDisplay:10.37,2013-01-22 05:14:00,
2013-01-21 21:19:00,39.9,5.0,30.16,WSW,237,3.0,3.0,23,0.00,CLR,,0.00,WeatherDisplay:10.37,2013-01-22 05:19:00,
2013-01-21 21:24:00,38.9,5.1,30.16,WSW,237,1.0,1.0,24,0.00,CLR,,0.00,WeatherDisplay:10.37,2013-01-22 05:24:00,
2013-01-21 21:29:00,38.2,4.5,30.16,WSW,237,0.0,0.0,24,0.00,CLR,,0.00,WeatherDisplay:10.37,2013-01-22 05:29:00,
2013-01-21 21:34:00,37.8,5.9,30.16,WSW,237,0.0,0.0,26,0.00,CLR,,0.00,WeatherDisplay:10.37,2013-01-22 05:34:00,
2013-01-21 21:39:00,37.9,6.0,30.16,WSW,237,0.0,0.0,26,0.00,CLR,,0.00,WeatherDisplay:10.37,2013-01-22 05:39:00,
2013-01-21 21:44:00,37.8,5.1,30.17,WSW,237,2.3,2.3,25,0.00,CLR,,0.00,WeatherDisplay:10.37,2013-01-22 05:44:00,
2013-01-21 21:49:00,37.0,4.4,30.17,WSW,237,2.3,2.3,25,0.00,CLR,,0.00,WeatherDisplay:10.37,2013-01-22 05:49:00,
2013-01-21 21:54:00,36.3,2.9,30.17,WSW,237,2.3,2.3,24,0.00,CLR,,0.00,WeatherDisplay:10.37,2013-01-22 05:54:00,
2013-01-21 21:59:00,35.5,3.1,30.17,WSW,237,2.3,2.3,25,0.00,CLR,,0.00,WeatherDisplay:10.37,2013-01-22 05:59:00,
2013-01-21 22:04:00,34.6,2.3,30.14,WSW,237,0.0,0.0,25,0.00,CLR,,0.00,WeatherDisplay:10.37,2013-01-22 06:04:00,
2013-01-21 22:09:00,34.4,3.0,30.14,WSW,237,0.0,0.0,26,0.00,CLR,,0.00,WeatherDisplay:10.37,2013-01-22 06:09:00,
2013-01-21 22:14:00,34.2,2.8,30.15,WSW,237,0.0,0.0,26,0.00,CLR,,0.00,WeatherDisplay:10.37,2013-01-22 06:14:00,
2013-01-21 22:19:00,33.4,2.1,30.16,WSW,237,4.0,4.0,26,0.00,CLR,,0.00,WeatherDisplay:10.37,2013-01-22 06:19:00,
2013-01-21 22:24:00,33.2,2.0,30.16,WSW,237,3.5,3.5,26,0.00,CLR,,0.00,WeatherDisplay:10.37,2013-01-22 06:24:00,
2013-01-21 22:29:00,32.8,1.6,30.16,WSW,237,2.3,2.3,26,0.00,CLR,,0.00,WeatherDisplay:10.37,2013-01-22 06:29:00,
2013-01-21 22:34:00,32.2,1.1,30.16,WSW,237,0.0,0.0,26,0.00,CLR,,0.00,WeatherDisplay:10.37,2013-01-22 06:34:00,
2013-01-21 22:39:00,32.0,2.5,30.16,WSW,237,3.5,3.5,28,0.00,CLR,,0.00,WeatherDisplay:10.37,2013-01-22 06:39:00,
2013-01-21 22:44:00,33.2,2.8,30.16,WSW,237,2.3,2.3,27,0.00,CLR,,0.00,WeatherDisplay:10.37,2013-01-22 06:44:00,
2013-01-21 22:49:00,33.9,3.4,30.15,WSW,237,2.3,2.3,27,0.00,CLR,,0.00,WeatherDisplay:10.37,2013-01-22 06:49:00,
2013-01-21 22:55:00,34.4,3.8,30.15,WSW,237,2.3,2.3,27,0.00,CLR,,0.00,WeatherDisplay:10.37,2013-01-22 06:55:00,
2013-01-21 23:00:00,35.0,4.3,30.15,WSW,237,2.3,2.3,27,0.00,CLR,,0.00,WeatherDisplay:10.37,2013-01-22 07:00:00,
2013-01-21 23:05:00,35.4,3.9,30.12,WSW,237,2.3,2.3,26,0.00,CLR,,0.00,WeatherDisplay:10.37,2013-01-22 07:05:00,
2013-01-21 23:10:00,36.5,4.8,30.12,WSW,237,3.5,3.5,26,0.00,CLR,,0.00,WeatherDisplay:10.37,2013-01-22 07:10:00,
2013-01-21 23:15:00,39.3,6.3,30.11,WSW,238,6.9,6.9,25,0.00,CLR,,0.00,WeatherDisplay:10.37,2013-01-22 07:15:00,
2013-01-21 23:20:00,42.7,7.4,30.10,WSW,238,5.8,5.8,23,0.00,CLR,,0.00,WeatherDisplay:10.37,2013-01-22 07:20:00,
2013-01-21 23:25:00,41.8,5.7,30.11,SSW,202,5.0,5.0,22,0.00,CLR,,0.00,WeatherDisplay:10.37,2013-01-22 07:25:00,
2013-01-21 23:30:00,35.9,2.5,30.13,SSE,167,4.6,4.6,24,0.00,CLR,,0.00,WeatherDisplay:10.37,2013-01-22 07:30:00,
2013-01-21 23:35:00,33.3,2.0,30.14,SSE,167,3.5,3.5,26,0.00,CLR,,0.00,WeatherDisplay:10.37,2013-01-22 07:35:00,
2013-01-21 23:40:00,32.2,0.3,30.14,SSE,167,3.5,3.5,25,0.00,CLR,,0.00,WeatherDisplay:10.37,2013-01-22 07:40:00,
2013-01-21 23:45:00,30.8,-0.1,30.14,SSE,167,0.0,0.1,26,0.00,CLR,,0.00,WeatherDisplay:10.37,2013-01-22 07:45:00,
2013-01-21 23:50:00,30.0,0.0,30.15,SSE,167,0.0,1.7,27,0.00,CLR,,0.00,WeatherDisplay:10.37,2013-01-22 07:50:00,
2013-01-21 23:55:00,29.7,0.5,30.15,SSE,167,1.1,1.1,28,0.00,CLR,,0.00,WeatherDisplay:10.37,2013-01-22 07:55:00,